Stolt Jade — ZCSQ4 — position and weather

sailwx.info

Track history (hours):
 
Tides and Currents Weather Stations Pressure Air Temp Water Temp Dewpoint Dewpoint Depression Visibility Wind Speed Wind Dir Waves Ship Positions

Stolt Jade

Last reported at 2015-Feb-12 09:17 UTC. Time now 2015-Mar-01 02:52 UTC.
Position N 28°45' W 095°10'.
Warning: this ship's position is 16 days out of date.

Length 175 m; draft 10.9 m.

Type: Ship (hazmat cat B). MMSI: 319439000.

Date/timePositionNaut miles runAvg speedWind from/ knotsBaromVisibWave heightAir tempDewpointWater temp
2015-Feb-12 09:17N 28°45' W 095°10'0 0.0
2015-Feb-12 05:11N 28°45' W 095°10'0 0.0
2015-Feb-12 04:29N 28°45' W 095°10'0 0.0
2015-Feb-12 03:17N 28°45' W 095°10'18 0.7
2015-Feb-11 02:33N 28°53' W 094°51'29 7.3
2015-Feb-10 22:33N 29°22' W 094°48'1110.9
2015-Feb-10 21:33N 29°32' W 094°54'1010.2
2015-Feb-10 20:33N 29°41' W 094°59'7 6.9
2015-Feb-10 19:33N 29°45' W 095°06'0 0.3
2015-Feb-10 18:10N 29°45' W 095°06'0 0.0
2015-Feb-10 17:28N 29°45' W 095°06'0 0.0
2015-Feb-10 16:28N 29°45' W 095°06'0 0.0
2015-Feb-10 15:22N 29°45' W 095°06'0 0.0
2015-Feb-10 14:22N 29°45' W 095°06'0 0.0
2015-Feb-10 13:28N 29°45' W 095°06'0 0.0
2015-Feb-10 12:31N 29°45' W 095°06'0 0.0
2015-Feb-10 11:28N 29°45' W 095°06'0 0.0
2015-Feb-10 10:16N 29°45' W 095°06'0 0.0
2015-Feb-10 09:22N 29°45' W 095°06'0 0.0
2015-Feb-10 08:28N 29°45' W 095°06'0 0.0
2015-Feb-10 07:22N 29°45' W 095°06'0 0.0
2015-Feb-10 06:28N 29°45' W 095°06'0 0.0
2015-Feb-10 05:28N 29°45' W 095°06'0 0.0
2015-Feb-10 04:22N 29°45' W 095°06'0 0.0
2015-Feb-10 03:28N 29°45' W 095°06'0 0.0
2015-Feb-10 02:16N 29°45' W 095°06'0 0.0
2015-Feb-10 01:25N 29°45' W 095°06'0 0.0
2015-Feb-10 00:10N 29°45' W 095°06'0 0.0
2015-Feb-09 22:28N 29°45' W 095°06'0 0.0
2015-Feb-09 21:28N 29°45' W 095°06'0 0.0
2015-Feb-09 20:16N 29°45' W 095°06'0 0.0
2015-Feb-09 19:25N 29°45' W 095°06'0 0.0
2015-Feb-09 18:16N 29°45' W 095°06'0 0.0
2015-Feb-09 17:28N 29°45' W 095°06'0 0.0
2015-Feb-09 16:28N 29°45' W 095°06'0 0.0
2015-Feb-09 15:10N 29°45' W 095°06'0 0.0
2015-Feb-09 14:28N 29°45' W 095°06'0 0.0
2015-Feb-08 16:25N 29°45' W 095°06'3 3.2
2015-Feb-08 15:34N 29°44' W 095°03'9 8.5
2015-Feb-08 14:33N 29°37' W 094°57'1211.8
2015-Feb-08 13:33N 29°27' W 094°50'5 0.3
2015-Feb-07 21:16N 29°22' W 094°49'5 5.0
2015-Feb-07 20:12N 29°22' W 094°55'1 0.0
2015-Feb-06 11:30N 29°22' W 094°54'6 6.3
2015-Feb-06 10:33N 29°21' W 094°47'10 9.9
2015-Feb-06 09:33N 29°30' W 094°52'1211.9
2015-Feb-06 08:33N 29°40' W 094°59'8 8.0
2015-Feb-06 07:33N 29°45' W 095°06'1 0.6
2015-Feb-06 06:33N 29°45' W 095°06'0 0.0
2015-Feb-06 05:32N 29°45' W 095°06'0 0.0
2015-Feb-06 04:26N 29°45' W 095°06'0 0.0
2015-Feb-06 03:29N 29°45' W 095°06'0 0.0
2015-Feb-06 02:32N 29°45' W 095°06'0 0.0
2015-Feb-06 01:29N 29°45' W 095°06'0 0.0
2015-Feb-06 00:29N 29°45' W 095°06'0 0.0
2015-Feb-05 23:32N 29°45' W 095°06'0 0.0
2015-Feb-05 22:32N 29°45' W 095°06'0 0.0
2015-Feb-05 21:26N 29°45' W 095°06'0 0.0
2015-Feb-05 20:26N 29°45' W 095°06'0 0.0
2015-Feb-05 19:26N 29°45' W 095°06'0 0.0
2015-Feb-05 18:32N 29°45' W 095°06'0 0.0
2015-Feb-05 17:29N 29°45' W 095°06'0 0.0
2015-Feb-05 16:32N 29°45' W 095°06'0 0.0
2015-Feb-05 15:32N 29°45' W 095°06'0 0.0
2015-Feb-05 14:32N 29°45' W 095°06'0 0.0
2015-Feb-05 13:29N 29°45' W 095°06'0 0.0
2015-Feb-05 12:29N 29°45' W 095°06'0 0.0
2015-Feb-05 11:32N 29°45' W 095°06'0 0.0
2015-Feb-05 10:32N 29°45' W 095°06'0 0.0
2015-Feb-05 09:32N 29°45' W 095°06'0 0.0
2015-Feb-05 08:32N 29°45' W 095°06'0 0.0
2015-Feb-05 07:32N 29°45' W 095°06'0 0.0
2015-Feb-05 06:32N 29°45' W 095°06'0 0.0
2015-Feb-05 05:32N 29°45' W 095°06'0 0.0
2015-Feb-05 04:32N 29°45' W 095°06'0 0.0
2015-Feb-05 03:32N 29°45' W 095°06'0 0.0
2015-Feb-05 02:26N 29°45' W 095°06'0 0.0
2015-Feb-05 01:32N 29°45' W 095°06'0 0.0
2015-Feb-05 00:32N 29°45' W 095°06'0 0.0
2015-Feb-04 23:32N 29°45' W 095°06'0 0.0
2015-Feb-04 22:20N 29°45' W 095°06'0 0.0
2015-Feb-04 21:29N 29°45' W 095°06'0 0.0
2015-Feb-04 20:32N 29°45' W 095°06'0 0.0
2015-Feb-04 19:32N 29°45' W 095°06'0 0.0
2015-Feb-04 18:29N 29°45' W 095°06'0 0.0
2015-Feb-04 17:32N 29°45' W 095°06'0 0.0
2015-Feb-04 16:32N 29°45' W 095°06'0 0.0
2015-Feb-04 15:32N 29°45' W 095°06'0 0.0
2015-Feb-04 14:23N 29°45' W 095°06'0 0.0
2015-Feb-03 23:23N 29°45' W 095°06'0 0.0
2015-Feb-03 21:23N 29°45' W 095°06'0 0.0
2015-Feb-03 19:28N 29°45' W 095°06'4 4.5
2015-Feb-03 18:34N 29°44' W 095°01'9 8.6
2015-Feb-03 17:33N 29°36' W 094°57'1110.6
2015-Feb-03 16:33N 29°27' W 094°51'9 8.7
2015-Feb-03 15:30N 29°21' W 094°43'  
Track history (hours):
 
Tides and Currents Weather Stations Pressure Air Temp Water Temp Dewpoint Dewpoint Depression Visibility Wind Speed Wind Dir Waves Ship Positions

Stolt Jade

Last reported at 2015-Feb-12 09:17 UTC. Time now 2015-Mar-01 02:52 UTC.
Position N 28°45' W 095°10'.
Warning: this ship's position is 16 days out of date.

Length 175 m; draft 10.9 m.

Type: Ship (hazmat cat B). MMSI: 319439000.

Date/timePositionNaut miles runAvg speedWind from/ knotsBaromVisibWave heightAir tempDewpointWater temp
2015-Feb-12 09:17N 28°45' W 095°10'0 0.0
2015-Feb-12 05:11N 28°45' W 095°10'0 0.0
2015-Feb-12 04:29N 28°45' W 095°10'0 0.0
2015-Feb-12 03:17N 28°45' W 095°10'18 0.7
2015-Feb-11 02:33N 28°53' W 094°51'29 7.3
2015-Feb-10 22:33N 29°22' W 094°48'1110.9
2015-Feb-10 21:33N 29°32' W 094°54'1010.2
2015-Feb-10 20:33N 29°41' W 094°59'7 6.9
2015-Feb-10 19:33N 29°45' W 095°06'0 0.3
2015-Feb-10 18:10N 29°45' W 095°06'0 0.0
2015-Feb-10 17:28N 29°45' W 095°06'0 0.0
2015-Feb-10 16:28N 29°45' W 095°06'0 0.0
2015-Feb-10 15:22N 29°45' W 095°06'0 0.0
2015-Feb-10 14:22N 29°45' W 095°06'0 0.0
2015-Feb-10 13:28N 29°45' W 095°06'0 0.0
2015-Feb-10 12:31N 29°45' W 095°06'0 0.0
2015-Feb-10 11:28N 29°45' W 095°06'0 0.0
2015-Feb-10 10:16N 29°45' W 095°06'0 0.0
2015-Feb-10 09:22N 29°45' W 095°06'0 0.0
2015-Feb-10 08:28N 29°45' W 095°06'0 0.0
2015-Feb-10 07:22N 29°45' W 095°06'0 0.0
2015-Feb-10 06:28N 29°45' W 095°06'0 0.0
2015-Feb-10 05:28N 29°45' W 095°06'0 0.0
2015-Feb-10 04:22N 29°45' W 095°06'0 0.0
2015-Feb-10 03:28N 29°45' W 095°06'0 0.0
2015-Feb-10 02:16N 29°45' W 095°06'0 0.0
2015-Feb-10 01:25N 29°45' W 095°06'0 0.0
2015-Feb-10 00:10N 29°45' W 095°06'0 0.0
2015-Feb-09 22:28N 29°45' W 095°06'0 0.0
2015-Feb-09 21:28N 29°45' W 095°06'0 0.0
2015-Feb-09 20:16N 29°45' W 095°06'0 0.0
2015-Feb-09 19:25N 29°45' W 095°06'0 0.0
2015-Feb-09 18:16N 29°45' W 095°06'0 0.0
2015-Feb-09 17:28N 29°45' W 095°06'0 0.0
2015-Feb-09 16:28N 29°45' W 095°06'0 0.0
2015-Feb-09 15:10N 29°45' W 095°06'0 0.0
2015-Feb-09 14:28N 29°45' W 095°06'0 0.0
2015-Feb-08 16:25N 29°45' W 095°06'3 3.2
2015-Feb-08 15:34N 29°44' W 095°03'9 8.5
2015-Feb-08 14:33N 29°37' W 094°57'1211.8
2015-Feb-08 13:33N 29°27' W 094°50'5 0.3
2015-Feb-07 21:16N 29°22' W 094°49'5 5.0
2015-Feb-07 20:12N 29°22' W 094°55'1 0.0
2015-Feb-06 11:30N 29°22' W 094°54'6 6.3
2015-Feb-06 10:33N 29°21' W 094°47'10 9.9
2015-Feb-06 09:33N 29°30' W 094°52'1211.9
2015-Feb-06 08:33N 29°40' W 094°59'8 8.0
2015-Feb-06 07:33N 29°45' W 095°06'1 0.6
2015-Feb-06 06:33N 29°45' W 095°06'0 0.0
2015-Feb-06 05:32N 29°45' W 095°06'0 0.0
2015-Feb-06 04:26N 29°45' W 095°06'0 0.0
2015-Feb-06 03:29N 29°45' W 095°06'0 0.0
2015-Feb-06 02:32N 29°45' W 095°06'0 0.0
2015-Feb-06 01:29N 29°45' W 095°06'0 0.0
2015-Feb-06 00:29N 29°45' W 095°06'0 0.0
2015-Feb-05 23:32N 29°45' W 095°06'0 0.0
2015-Feb-05 22:32N 29°45' W 095°06'0 0.0
2015-Feb-05 21:26N 29°45' W 095°06'0 0.0
2015-Feb-05 20:26N 29°45' W 095°06'0 0.0
2015-Feb-05 19:26N 29°45' W 095°06'0 0.0
2015-Feb-05 18:32N 29°45' W 095°06'0 0.0
2015-Feb-05 17:29N 29°45' W 095°06'0 0.0
2015-Feb-05 16:32N 29°45' W 095°06'0 0.0
2015-Feb-05 15:32N 29°45' W 095°06'0 0.0
2015-Feb-05 14:32N 29°45' W 095°06'0 0.0
2015-Feb-05 13:29N 29°45' W 095°06'0 0.0
2015-Feb-05 12:29N 29°45' W 095°06'0 0.0
2015-Feb-05 11:32N 29°45' W 095°06'0 0.0
2015-Feb-05 10:32N 29°45' W 095°06'0 0.0
2015-Feb-05 09:32N 29°45' W 095°06'0 0.0
2015-Feb-05 08:32N 29°45' W 095°06'0 0.0
2015-Feb-05 07:32N 29°45' W 095°06'0 0.0
2015-Feb-05 06:32N 29°45' W 095°06'0 0.0
2015-Feb-05 05:32N 29°45' W 095°06'0 0.0
2015-Feb-05 04:32N 29°45' W 095°06'0 0.0
2015-Feb-05 03:32N 29°45' W 095°06'0 0.0
2015-Feb-05 02:26N 29°45' W 095°06'0 0.0
2015-Feb-05 01:32N 29°45' W 095°06'0 0.0
2015-Feb-05 00:32N 29°45' W 095°06'0 0.0
2015-Feb-04 23:32N 29°45' W 095°06'0 0.0
2015-Feb-04 22:20N 29°45' W 095°06'0 0.0
2015-Feb-04 21:29N 29°45' W 095°06'0 0.0
2015-Feb-04 20:32N 29°45' W 095°06'0 0.0
2015-Feb-04 19:32N 29°45' W 095°06'0 0.0
2015-Feb-04 18:29N 29°45' W 095°06'0 0.0
2015-Feb-04 17:32N 29°45' W 095°06'0 0.0
2015-Feb-04 16:32N 29°45' W 095°06'0 0.0
2015-Feb-04 15:32N 29°45' W 095°06'0 0.0
2015-Feb-04 14:23N 29°45' W 095°06'0 0.0
2015-Feb-03 23:23N 29°45' W 095°06'0 0.0
2015-Feb-03 21:23N 29°45' W 095°06'0 0.0
2015-Feb-03 19:28N 29°45' W 095°06'4 4.5
2015-Feb-03 18:34N 29°44' W 095°01'9 8.6
2015-Feb-03 17:33N 29°36' W 094°57'1110.6
2015-Feb-03 16:33N 29°27' W 094°51'9 8.7
2015-Feb-03 15:30N 29°21' W 094°43'  

Dump ship's entire track history